CheckWX is a tool to help pilots better visualize weather data.  It is not intended as a substitute for an official pre-flight weather briefing.

00:41:55 UTC

KMMI METAR
McMinn County Airport
Athens, Tennessee, USA
Current

27 mins ago

KMMI 210015Z AUTO 00000KT 10SM OVC025 09/07 A2991 RMK A01
Observed
Apr-21 @ 00:15 UTC
Visibility
10 SM
Flight Rules
MVFR
Cloud Levels
  • Overcast at 2,500' AGL
Temperature
C / 48°F
Dewpoint
C / 45°F
Humidity
87%
Altimeter
29.91" Hg
Pressure
1012.92 hPa
Previous

47 mins ago

KMMI 202355Z AUTO 00000KT 10SM BKN027 BKN032 OVC038 09/07 A2990 RMK A01
Observed
Apr-20 @ 23:55 UTC
Visibility
10 SM
Flight Rules
MVFR
Cloud Levels
  • Broken at 2,700' AGL
  • Broken at 3,200' AGL
  • Overcast at 3,800' AGL
Temperature
C / 48°F
Dewpoint
C / 45°F
Humidity
87%
Altimeter
29.9" Hg
Pressure
1012.52 hPa
Previous

1 hour ago

KMMI 202335Z AUTO 00000KT 10SM BKN034 BKN041 OVC070 09/07 A2989 RMK A01
Observed
Apr-20 @ 23:35 UTC
Visibility
10 SM
Flight Rules
VFR
Cloud Levels
  • Broken at 3,400' AGL
  • Broken at 4,100' AGL
  • Overcast at 7,000' AGL
Temperature
C / 48°F
Dewpoint
C / 45°F
Humidity
87%
Altimeter
29.89" Hg
Pressure
1012.22 hPa